Time;durP1;ratioP1;P1;durP2;ratioP2;P2;SDS_P1;SDS_P2;PMS_P1;PMS_P2;Temp;Humidity;BMP_temperature;BMP_pressure;BME280_temperature;BME280_humidity;BME280_pressure;Samples;Min_cycle;Max_cycle;Signal;HPM_P1;HPM_P2
2023/07/21 00:01:53;;;;;;;8.43;1.73;;;;;;;16.76;65.28;100226.47;5054194;28;20040;-79
2023/07/21 00:04:57;;;;;;;4.20;1.65;;;;;;;16.89;64.62;100231.56;5054519;28;20044;-80
2023/07/21 00:08:00;;;;;;;6.43;1.85;;;;;;;16.82;65.79;100228.59;5054521;28;20052;-80
2023/07/21 00:11:04;;;;;;;7.32;1.90;;;;;;;16.82;66.02;100223.31;5054350;28;20133;-79
2023/07/21 00:14:10;;;;;;;5.13;1.90;;;;;;;16.80;66.54;100225.25;5054348;28;20048;-79
2023/07/21 00:17:13;;;;;;;5.57;1.77;;;;;;;16.80;66.71;100227.03;5053666;28;20098;-79
2023/07/21 00:20:21;;;;;;;5.82;1.45;;;;;;;16.79;66.40;100228.84;5054269;28;20051;-79
2023/07/21 00:23:26;;;;;;;4.43;1.60;;;;;;;16.82;66.38;100225.13;5054305;28;20133;-80
2023/07/21 00:26:30;;;;;;;7.55;1.63;;;;;;;16.67;66.63;100216.63;5053892;28;20129;-80
2023/07/21 00:29:33;;;;;;;4.35;1.92;;;;;;;16.72;67.30;100212.66;5053210;28;20044;-80
2023/07/21 00:32:38;;;;;;;5.57;1.98;;;;;;;16.63;67.64;100212.56;5053877;28;20460;-80
2023/07/21 00:35:42;;;;;;;6.28;1.80;;;;;;;16.61;67.98;100215.31;5053157;28;20043;-80
2023/07/21 00:38:49;;;;;;;4.65;1.88;;;;;;;16.61;68.09;100211.84;5053820;28;20063;-80
2023/07/21 00:41:52;;;;;;;4.13;1.65;;;;;;;16.63;68.28;100212.56;5053237;28;20098;-80
2023/07/21 00:44:56;;;;;;;6.80;1.98;;;;;;;16.64;68.53;100203.69;5052960;28;20095;-80
2023/07/21 00:48:07;;;;;;;3.15;1.60;;;;;;;16.60;68.93;100204.91;5053998;28;20043;-80
2023/07/21 00:51:11;;;;;;;9.00;2.25;;;;;;;16.48;69.71;100207.56;5052799;28;20060;-81
2023/07/21 00:54:14;;;;;;;4.90;1.60;;;;;;;16.54;68.98;100208.88;5052701;28;20094;-81
2023/07/21 00:57:20;;;;;;;11.82;1.80;;;;;;;16.64;68.44;100206.31;5052929;28;20534;-80
2023/07/21 01:00:24;;;;;;;6.95;1.80;;;;;;;16.63;68.13;100205.50;5052767;28;20139;-80
2023/07/21 01:03:31;;;;;;;5.63;1.48;;;;;;;16.57;68.50;100208.63;5053232;28;20084;-80
2023/07/21 01:06:37;;;;;;;5.47;1.83;;;;;;;16.55;68.59;100204.44;5052632;28;20087;-80
2023/07/21 01:10:02;;;;;;;5.07;1.70;;;;;;;16.47;68.65;100205.91;5053268;28;20114;-80
2023/07/21 01:13:17;;;;;;;7.65;1.92;;;;;;;16.57;68.13;100206.00;5053301;28;20039;-79
2023/07/21 01:17:08;;;;;;;6.47;2.25;;;;;;;16.66;67.01;100215.81;5052756;28;20067;-80
2023/07/21 01:20:47;;;;;;;7.40;2.10;;;;;;;16.67;67.16;100211.34;5052454;28;20047;-81
2023/07/21 01:24:04;;;;;;;4.95;1.80;;;;;;;16.61;68.01;100211.84;5053336;28;20083;-82
2023/07/21 01:27:09;;;;;;;6.60;2.00;;;;;;;16.55;68.43;100210.56;5052233;28;20126;-82
2023/07/21 01:30:16;;;;;;;5.70;1.70;;;;;;;16.69;67.96;100190.94;5052974;28;20079;-82
2023/07/21 01:33:20;;;;;;;5.50;1.83;;;;;;;16.59;69.98;100190.03;5052183;28;20063;-82
2023/07/21 01:36:26;;;;;;;8.70;2.05;;;;;;;16.64;71.00;100198.41;5052060;28;20063;-82
2023/07/21 01:39:30;;;;;;;5.75;1.90;;;;;;;16.65;71.50;100197.44;5052528;28;20098;-81
2023/07/21 01:42:34;;;;;;;5.13;1.55;;;;;;;16.58;72.80;100189.19;5052824;28;20410;-81
2023/07/21 01:45:38;;;;;;;5.10;1.55;;;;;;;16.54;73.40;100197.50;5052742;28;20111;-81
2023/07/21 01:48:43;;;;;;;4.65;1.60;;;;;;;16.46;74.49;100208.66;5052282;28;20086;-82
2023/07/21 01:51:48;;;;;;;4.65;1.60;;;;;;;16.49;73.86;100200.50;5052571;28;20124;-82
2023/07/21 01:54:58;;;;;;;3.45;1.90;;;;;;;16.41;74.42;100201.13;5052666;28;20044;-82
2023/07/21 01:58:05;;;;;;;7.45;2.55;;;;;;;16.30;75.83;100193.25;5051832;28;20124;-82
2023/07/21 02:01:10;;;;;;;8.85;2.08;;;;;;;16.28;76.80;100184.63;5051553;28;20044;-81
2023/07/21 02:04:14;;;;;;;5.70;1.85;;;;;;;16.46;77.17;100179.63;5052275;28;20060;-80
2023/07/21 02:07:22;;;;;;;5.13;2.08;;;;;;;16.39;77.72;100183.75;5051556;28;20409;-80
2023/07/21 02:10:25;;;;;;;5.72;2.10;;;;;;;16.21;79.00;100186.94;5052729;28;20110;-80
2023/07/21 02:13:41;;;;;;;4.95;2.28;;;;;;;16.24;79.59;100175.28;5051676;28;20035;-80
2023/07/21 02:16:46;;;;;;;4.90;2.00;;;;;;;16.18;79.12;100173.16;5052542;28;20048;-81
2023/07/21 02:19:50;;;;;;;7.85;2.30;;;;;;;16.25;79.75;100174.34;5052299;28;20044;-83
2023/07/21 02:22:53;;;;;;;4.47;1.90;;;;;;;16.30;78.99;100160.75;5051288;28;20094;-80
2023/07/21 02:25:59;;;;;;;3.15;2.00;;;;;;;16.09;80.02;100166.81;5052313;28;20110;-79
2023/07/21 02:29:03;;;;;;;5.15;2.30;;;;;;;16.13;80.25;100170.88;5051472;28;20403;-79
2023/07/21 02:32:10;;;;;;;3.40;1.80;;;;;;;16.16;80.27;100170.63;5051677;28;20059;-79
2023/07/21 02:35:14;;;;;;;4.28;1.92;;;;;;;16.20;79.90;100163.31;5052240;28;20048;-80
2023/07/21 02:38:17;;;;;;;15.48;2.67;;;;;;;16.03;81.39;100176.06;5052393;28;20063;-79
2023/07/21 02:41:21;;;;;;;3.58;1.75;;;;;;;16.03;82.58;100160.25;5051956;28;20097;-78
2023/07/21 02:44:25;;;;;;;5.55;2.10;;;;;;;15.97;82.75;100160.75;5051337;28;20056;-78
2023/07/21 02:47:28;;;;;;;4.68;2.40;;;;;;;15.89;83.53;100160.53;5051064;28;20521;-79
2023/07/21 02:50:33;;;;;;;7.10;2.10;;;;;;;15.92;82.79;100156.78;5053953;28;20098;-79
2023/07/21 02:53:36;;;;;;;8.68;2.42;;;;;;;15.90;82.71;100149.00;5055074;28;20043;-79
2023/07/21 02:56:41;;;;;;;9.68;2.53;;;;;;;15.84;83.37;100138.97;5055011;28;20043;-78
2023/07/21 02:59:55;;;;;;;4.97;2.20;;;;;;;15.89;82.65;100144.72;5054891;28;20052;-79
2023/07/21 03:03:08;;;;;;;4.20;2.03;;;;;;;15.90;83.76;100143.75;5054596;28;20110;-80
2023/07/21 03:06:12;;;;;;;7.85;2.95;;;;;;;15.94;82.87;100145.16;5054471;28;20048;-80
2023/07/21 03:09:16;;;;;;;5.32;2.63;;;;;;;15.88;83.49;100134.28;5054826;28;20051;-79
2023/07/21 03:12:19;;;;;;;3.05;2.13;;;;;;;15.83;82.78;100136.47;5054510;28;20044;-79
2023/07/21 03:15:31;;;;;;;4.55;1.90;;;;;;;15.93;83.02;100127.69;5055380;28;20048;-79
2023/07/21 03:18:46;;;;;;;6.63;2.60;;;;;;;15.88;83.38;100137.75;5054675;28;20121;-80
2023/07/21 03:21:54;;;;;;;6.07;2.30;;;;;;;15.74;83.71;100135.38;5054463;28;20032;-80
2023/07/21 03:24:59;;;;;;;3.80;2.58;;;;;;;15.69;84.80;100140.19;5055492;28;20056;-79
2023/07/21 03:28:02;;;;;;;4.53;2.35;;;;;;;15.75;84.31;100135.25;5054283;28;20043;-81
2023/07/21 03:31:09;;;;;;;5.80;2.67;;;;;;;15.65;84.79;100123.75;5054384;28;20048;-80
2023/07/21 03:34:24;;;;;;;5.57;2.20;;;;;;;15.76;84.53;100129.03;5054221;28;20084;-78
2023/07/21 03:37:27;;;;;;;11.77;2.63;;;;;;;15.76;85.08;100126.41;5042704;28;20410;-79
2023/07/21 03:40:30;;;;;;;4.15;2.25;;;;;;;15.73;85.02;100128.44;5055199;28;20056;-80
2023/07/21 03:43:38;;;;;;;7.28;2.33;;;;;;;15.77;84.12;100129.88;5055045;28;20079;-79
2023/07/21 03:46:41;;;;;;;6.93;2.47;;;;;;;15.79;85.45;100126.16;5042431;28;20064;-80
2023/07/21 03:49:53;;;;;;;3.97;2.10;;;;;;;15.90;84.86;100133.19;5054015;28;20091;-81
2023/07/21 03:52:56;;;;;;;7.43;2.33;;;;;;;15.78;85.21;100128.91;5053850;28;20044;-80
2023/07/21 03:55:59;;;;;;;5.88;2.55;;;;;;;15.70;85.39;100126.06;5053869;28;20087;-81
2023/07/21 03:59:06;;;;;;;5.65;2.40;;;;;;;15.69;85.98;100121.72;5054775;28;20044;-80
2023/07/21 04:02:10;;;;;;;7.43;3.08;;;;;;;15.71;86.19;100125.94;5041292;28;20116;-82
2023/07/21 04:05:14;;;;;;;5.20;2.42;;;;;;;15.67;86.62;100121.03;5053083;28;20135;-83
2023/07/21 04:08:20;;;;;;;4.28;2.20;;;;;;;15.66;86.19;100119.31;5055391;28;20067;-81
2023/07/21 04:11:27;;;;;;;6.63;2.55;;;;;;;15.52;87.00;100123.88;5053660;28;20134;-86
2023/07/21 04:14:30;;;;;;;4.65;2.35;;;;;;;15.70;86.54;100111.09;5054403;28;20585;-84
2023/07/21 04:17:34;;;;;;;5.13;2.38;;;;;;;15.67;87.11;100110.50;5053651;28;20056;-81
2023/07/21 04:20:38;;;;;;;6.45;2.20;;;;;;;15.73;87.54;100109.97;5054557;28;20128;-85
2023/07/21 04:23:43;;;;;;;6.43;3.30;;;;;;;15.73;87.37;100107.34;5052394;28;20051;-83
2023/07/21 04:26:48;;;;;;;7.35;2.75;;;;;;;15.67;87.33;100105.22;5052574;28;20051;-85
2023/07/21 04:29:51;;;;;;;4.85;2.70;;;;;;;15.74;87.27;100103.75;5041343;28;20083;-84
2023/07/21 04:32:57;;;;;;;5.15;2.33;;;;;;;15.72;87.33;100114.41;5053563;28;20459;-84
2023/07/21 04:36:11;;;;;;;5.82;2.63;;;;;;;15.78;87.41;100110.44;5052828;28;20068;-82
2023/07/21 04:39:14;;;;;;;5.47;2.50;;;;;;;15.74;87.91;100106.41;5053529;28;20043;-81
2023/07/21 04:42:17;;;;;;;4.75;2.28;;;;;;;15.57;87.94;100110.31;5053340;28;20138;-81
2023/07/21 04:45:20;;;;;;;6.45;2.90;;;;;;;15.58;88.69;100107.59;5053085;28;20106;-81
2023/07/21 04:48:37;;;;;;;5.78;2.15;;;;;;;15.83;86.93;100100.38;5051582;28;20502;-80
2023/07/21 04:51:45;;;;;;;3.63;2.30;;;;;;;15.80;86.44;100103.28;5052169;28;20140;-79
2023/07/21 04:54:48;;;;;;;6.82;2.45;;;;;;;15.76;86.50;100097.41;5051249;28;20410;-81
2023/07/21 04:57:52;;;;;;;5.60;2.10;;;;;;;15.81;86.04;100095.22;5039503;28;20091;-81
2023/07/21 05:00:57;;;;;;;7.93;2.30;;;;;;;15.95;85.24;100099.41;5051951;28;20048;-80
2023/07/21 05:04:05;;;;;;;6.30;2.33;;;;;;;16.01;85.09;100096.22;5052638;28;20078;-81
2023/07/21 05:07:16;;;;;;;7.63;2.13;;;;;;;16.08;84.90;100103.63;5053353;28;20043;-80
2023/07/21 05:10:20;;;;;;;3.97;2.45;;;;;;;16.13;84.17;100106.75;5052584;28;20047;-79
2023/07/21 05:13:24;;;;;;;4.25;2.58;;;;;;;16.14;84.90;100109.25;5051675;28;20095;-80
2023/07/21 05:17:03;;;;;;;4.10;2.30;;;;;;;15.79;86.43;100131.44;5052908;28;20044;-79
2023/07/21 05:20:24;;;;;;;5.53;2.45;;;;;;;15.42;89.57;100156.34;5052166;28;20083;-80
2023/07/21 05:23:54;;;;;;;6.80;2.60;;;;;;;15.63;87.81;100140.63;5035944;28;20140;-81
2023/07/21 05:27:00;;;;;;;6.20;3.28;;;;;;;15.88;86.91;100144.81;5053051;28;20056;-80
2023/07/21 05:30:19;;;;;;;4.43;3.08;;;;;;;16.00;86.63;100142.03;5041035;28;20147;-81
2023/07/21 05:33:27;;;;;;;3.72;2.75;;;;;;;16.11;85.78;100140.31;5052185;28;20415;-81
2023/07/21 05:36:34;;;;;;;6.82;3.15;;;;;;;16.20;86.24;100145.69;5051226;28;20078;-82
2023/07/21 05:39:39;;;;;;;6.55;2.55;;;;;;;16.23;86.51;100139.31;5050683;28;20512;-83
2023/07/21 05:42:47;;;;;;;7.20;2.55;;;;;;;16.40;85.51;100143.19;5051903;28;20086;-83
2023/07/21 05:45:51;;;;;;;4.35;2.33;;;;;;;16.40;85.79;100135.28;5051623;28;20560;-82
2023/07/21 05:48:54;;;;;;;7.47;2.90;;;;;;;16.50;85.53;100139.69;5052213;28;20410;-83
2023/07/21 05:52:01;;;;;;;7.30;3.00;;;;;;;16.57;83.85;100133.91;5040525;28;20052;-83
2023/07/21 05:55:08;;;;;;;9.07;2.67;;;;;;;16.62;83.10;100134.34;5051797;28;20190;-83
2023/07/21 05:58:11;;;;;;;4.25;2.28;;;;;;;16.55;84.41;100138.47;5051965;28;20087;-83
2023/07/21 06:01:14;;;;;;;4.78;2.63;;;;;;;16.47;84.51;100132.03;5051689;28;20470;-82
2023/07/21 06:04:18;;;;;;;4.10;2.35;;;;;;;16.41;85.25;100129.88;5051758;28;20139;-82
2023/07/21 06:07:28;;;;;;;7.68;2.78;;;;;;;16.46;84.67;100124.22;5051670;28;20445;-85
2023/07/21 06:10:54;;;;;;;;;;;;;;;16.59;83.97;100118.75;5041064;28;20060;-85
2023/07/21 06:14:09;;;;;;;3.50;2.30;;;;;;;16.60;85.20;100131.00;5052033;28;19923;-80
2023/07/21 06:17:32;;;;;;;6.60;2.30;;;;;;;16.65;85.37;100128.81;5051678;28;20099;-88
2023/07/21 06:20:39;;;;;;;8.40;2.30;;;;;;;16.67;84.32;100130.34;5051649;28;20107;-86
2023/07/21 06:23:43;;;;;;;4.43;2.60;;;;;;;16.71;84.37;100125.66;5052270;28;20040;-83
2023/07/21 06:26:46;;;;;;;6.20;2.30;;;;;;;16.49;84.67;100140.63;5056352;28;20051;-84
2023/07/21 06:29:56;;;;;;;4.28;2.20;;;;;;;16.55;84.85;100143.75;5056380;28;20052;-83
2023/07/21 06:33:05;;;;;;;5.97;2.47;;;;;;;16.60;84.56;100133.66;5055651;28;20040;-81
2023/07/21 06:36:17;;;;;;;3.80;2.40;;;;;;;16.72;85.08;100124.69;5055786;28;20056;-85
2023/07/21 06:39:52;;;;;;;3.75;2.20;;;;;;;16.84;83.48;100131.59;5055703;28;20114;-87
2023/07/21 06:43:56;;;;;;;3.70;2.60;;;;;;;16.92;82.95;100131.78;5023199;28;20094;-86
2023/07/21 06:47:51;;;;;;;4.05;2.38;;;;;;;16.93;83.53;100127.34;5056368;28;20070;-86
2023/07/21 06:51:40;;;;;;;4.13;2.40;;;;;;;17.14;81.76;100122.03;5046343;28;20132;-87
2023/07/21 06:54:58;;;;;;;5.15;2.55;;;;;;;17.17;82.37;100108.56;5055041;28;20067;-86
2023/07/21 06:58:01;;;;;;;3.33;2.20;;;;;;;17.19;81.86;100117.16;5055121;28;20091;-85
2023/07/21 07:01:04;;;;;;;3.38;2.00;;;;;;;17.20;79.70;100116.22;5054952;28;20097;-84
2023/07/21 07:04:19;;;;;;;3.10;1.95;;;;;;;17.37;78.61;100114.75;5054780;28;20094;-85
2023/07/21 07:07:28;;;;;;;3.13;1.85;;;;;;;17.47;78.23;100125.34;5055701;28;20141;-86
2023/07/21 07:15:52;;;;;;;;;;;;;;;17.56;75.05;100130.66;5056337;28;20123;-84
2023/07/21 07:19:08;;;;;;;4.50;2.13;;;;;;;17.64;75.80;100129.97;5055620;28;20427;-84
2023/07/21 07:22:16;;;;;;;5.65;2.45;;;;;;;17.60;75.97;100140.00;5055673;28;20051;-87
2023/07/21 07:36:16;;;;;;;3.78;2.20;;;;;;;17.46;78.75;100128.97;5052354;28;20040;-84
2023/07/21 07:39:21;;;;;;;5.82;2.75;;;;;;;17.47;79.08;100130.63;5053063;28;20651;-86
2023/07/21 07:42:28;;;;;;;5.40;2.40;;;;;;;17.52;78.80;100137.22;5052920;28;20091;-83
2023/07/21 07:45:57;;;;;;;6.47;2.28;;;;;;;17.51;77.92;100138.16;5052674;28;20091;-87
2023/07/21 07:49:35;;;;;;;10.00;2.88;;;;;;;17.52;77.10;100149.59;5041804;28;20040;-86
2023/07/21 07:53:03;;;;;;;8.63;2.65;;;;;;;17.19;78.64;100151.53;5052680;28;20557;-87
2023/07/21 07:56:22;;;;;;;5.50;3.05;;;;;;;17.12;79.00;100160.94;5042313;28;20135;-85
2023/07/21 07:59:26;;;;;;;4.13;2.22;;;;;;;17.04;80.69;100155.47;5052798;28;20059;-85
2023/07/21 08:02:31;;;;;;;6.10;2.80;;;;;;;17.15;81.53;100147.47;5041141;28;20048;-82
2023/07/21 08:05:47;;;;;;;8.38;3.00;;;;;;;17.23;79.67;100147.66;5052738;28;20107;-82
2023/07/21 08:08:50;;;;;;;5.10;2.50;;;;;;;17.40;79.05;100151.47;5053532;28;20114;-83
2023/07/21 08:11:57;;;;;;;7.90;3.03;;;;;;;17.50;78.26;100146.22;5053763;28;20075;-85
2023/07/21 08:15:01;;;;;;;3.35;2.58;;;;;;;17.58;77.60;100151.66;5053540;28;20552;-81
2023/07/21 08:18:05;;;;;;;3.60;2.30;;;;;;;17.61;76.47;100154.03;5054273;28;20056;-79
2023/07/21 08:21:18;;;;;;;3.30;2.35;;;;;;;17.67;76.68;100159.63;5054453;28;20039;-82
2023/07/21 08:24:22;;;;;;;4.03;2.75;;;;;;;17.70;75.66;100150.59;5053574;28;20048;-77
2023/07/21 08:27:27;;;;;;;8.32;2.67;;;;;;;17.73;74.77;100155.63;5054534;28;20068;-82
2023/07/21 08:30:30;;;;;;;4.43;2.95;;;;;;;17.86;74.62;100147.47;5054144;28;20044;-77
2023/07/21 08:33:36;;;;;;;4.55;3.17;;;;;;;17.80;76.13;100159.41;5053240;28;20091;-80
2023/07/21 08:36:40;;;;;;;5.15;2.70;;;;;;;17.63;75.90;100162.69;5053370;28;20106;-82
2023/07/21 08:39:43;;;;;;;5.40;2.63;;;;;;;17.78;76.97;100160.56;5053870;28;20087;-78
2023/07/21 08:42:48;;;;;;;5.10;3.13;;;;;;;17.91;76.51;100166.41;5054170;28;20079;-82
2023/07/21 08:45:54;;;;;;;4.38;3.28;;;;;;;18.05;76.95;100163.38;5052324;28;20048;-78
2023/07/21 08:49:05;;;;;;;5.38;3.45;;;;;;;17.98;77.48;100156.97;5054057;28;20048;-80
2023/07/21 08:52:11;;;;;;;10.38;2.90;;;;;;;18.12;77.30;100153.94;5052365;28;20039;-78
2023/07/21 08:55:15;;;;;;;3.65;2.53;;;;;;;18.11;79.39;100154.88;5052757;28;20095;-78
2023/07/21 08:58:20;;;;;;;6.05;2.85;;;;;;;18.06;80.87;100153.63;5053866;28;20072;-81
2023/07/21 09:01:24;;;;;;;5.47;3.08;;;;;;;18.25;80.62;100148.38;5053909;28;20132;-79
2023/07/21 09:04:29;;;;;;;5.38;3.65;;;;;;;18.26;80.96;100144.75;5013822;28;20157;-79
2023/07/21 09:07:34;;;;;;;11.60;3.20;;;;;;;18.29;81.75;100144.47;5013750;28;20464;-80
2023/07/21 09:10:37;;;;;;;6.68;2.78;;;;;;;18.31;80.35;100152.25;5013862;28;20061;-80
2023/07/21 09:13:51;;;;;;;5.40;3.15;;;;;;;18.18;79.11;100151.69;5013493;28;20074;-82
2023/07/21 09:16:57;;;;;;;4.43;3.00;;;;;;;18.11;81.43;100141.66;5013567;28;20103;-81
2023/07/21 09:20:07;;;;;;;5.15;3.28;;;;;;;18.38;79.65;100141.94;5013561;28;20044;-83
2023/07/21 09:23:10;;;;;;;4.63;3.10;;;;;;;18.41;79.31;100146.94;5013567;28;20088;-78
2023/07/21 09:26:24;;;;;;;7.45;3.17;;;;;;;18.52;78.55;100149.47;5013390;28;20068;-82
2023/07/21 09:29:27;;;;;;;9.35;3.22;;;;;;;18.47;78.01;100147.22;5013320;28;20137;-78
2023/07/21 09:32:42;;;;;;;10.98;2.95;;;;;;;18.51;77.04;100142.50;5013245;28;20048;-75
2023/07/21 09:35:49;;;;;;;8.93;3.70;;;;;;;18.70;76.91;100139.84;5013343;28;20577;-79
2023/07/21 09:38:52;;;;;;;4.93;3.25;;;;;;;18.76;78.65;100147.25;5013219;28;20129;-79
2023/07/21 09:41:59;;;;;;;6.50;2.92;;;;;;;18.83;76.99;100138.75;5013470;28;20141;-79
2023/07/21 09:45:03;;;;;;;6.50;3.08;;;;;;;19.00;75.87;100140.63;5012351;28;20048;-83
2023/07/21 09:48:07;;;;;;;5.75;2.75;;;;;;;19.04;74.92;100142.84;5013170;28;20056;-78
2023/07/21 09:51:13;;;;;;;5.57;3.63;;;;;;;18.97;76.13;100138.28;5013387;28;20076;-82
2023/07/21 09:54:21;;;;;;;8.77;3.42;;;;;;;18.81;73.47;100144.16;5013214;28;20460;-85
2023/07/21 09:57:32;;;;;;;6.93;2.83;;;;;;;19.17;73.10;100139.88;5013142;28;20046;-80
2023/07/21 10:00:39;;;;;;;5.72;2.92;;;;;;;19.10;71.92;100144.09;5012610;28;20045;-81
2023/07/21 10:03:46;;;;;;;12.23;3.50;;;;;;;18.74;71.27;100149.19;5043441;28;20099;-72
2023/07/21 10:06:53;;;;;;;7.78;3.60;;;;;;;18.75;72.18;100148.22;5051818;28;20071;-70
2023/07/21 10:09:57;;;;;;;8.20;3.25;;;;;;;18.96;69.58;100145.41;5052289;28;20540;-74
2023/07/21 10:13:05;;;;;;;7.13;3.40;;;;;;;19.12;67.88;100136.00;5052332;28;20525;-74
2023/07/21 10:16:10;;;;;;;5.00;3.03;;;;;;;19.24;67.11;100135.69;5052304;28;20709;-73
2023/07/21 10:19:14;;;;;;;4.05;2.75;;;;;;;19.25;67.49;100140.00;5040083;28;20051;-72
2023/07/21 10:22:33;;;;;;;7.45;2.75;;;;;;;19.38;66.90;100130.88;5052539;28;20297;-73
2023/07/21 10:25:58;;;;;;;4.63;2.70;;;;;;;19.41;66.69;100143.84;5052297;28;20051;-72
2023/07/21 10:29:19;;;;;;;5.05;2.58;;;;;;;19.58;66.49;100142.22;5052329;28;20044;-74
2023/07/21 10:32:24;;;;;;;3.78;2.53;;;;;;;19.66;65.46;100132.59;5052406;28;20163;-74
2023/07/21 10:35:39;;;;;;;5.05;2.50;;;;;;;19.46;66.00;100121.22;5051723;28;20057;-74
2023/07/21 10:38:42;;;;;;;6.93;3.22;;;;;;;19.83;65.00;100124.81;5052459;28;20051;-76
2023/07/21 10:41:50;;;;;;;7.97;3.45;;;;;;;19.94;63.33;100127.22;5051726;28;20074;-75
2023/07/21 10:44:54;;;;;;;4.72;2.72;;;;;;;20.02;62.20;100126.50;5052447;28;20070;-76
2023/07/21 10:48:11;;;;;;;8.95;2.88;;;;;;;19.90;59.74;100120.56;5052667;28;20600;-75
2023/07/21 10:51:14;;;;;;;5.22;2.40;;;;;;;20.09;59.20;100130.19;5052216;28;20135;-76
2023/07/21 10:54:19;;;;;;;4.95;2.08;;;;;;;20.08;58.79;100124.06;5052025;28;20132;-76
2023/07/21 10:57:33;;;;;;;10.00;2.80;;;;;;;20.14;56.47;100118.16;5052161;28;20133;-76
2023/07/21 11:00:53;;;;;;;3.28;1.90;;;;;;;20.37;54.53;100118.50;5052338;28;20052;-74
2023/07/21 11:04:04;;;;;;;4.07;1.98;;;;;;;20.34;56.60;100124.13;5051902;28;20060;-74
2023/07/21 11:07:14;;;;;;;2.97;1.92;;;;;;;20.44;57.25;100113.41;5052011;28;20059;-72
2023/07/21 11:10:33;;;;;;;4.40;2.13;;;;;;;20.39;58.35;100110.41;5051942;28;20067;-74
2023/07/21 11:13:39;;;;;;;6.30;2.55;;;;;;;20.51;57.68;100103.00;5054812;28;20467;-73
2023/07/21 11:16:50;;;;;;;6.18;2.10;;;;;;;20.62;57.65;100095.66;5055483;28;20090;-73
2023/07/21 11:19:54;;;;;;;4.35;1.90;;;;;;;20.71;57.46;100093.03;5055471;28;20055;-74
2023/07/21 11:22:58;;;;;;;5.15;2.00;;;;;;;20.80;56.88;100097.44;5054508;28;20099;-73
2023/07/21 11:26:11;;;;;;;4.05;2.13;;;;;;;20.34;58.02;100096.75;5055577;28;20051;-74
2023/07/21 11:29:16;;;;;;;6.20;1.88;;;;;;;20.46;58.44;100100.84;5055101;28;20553;-82
2023/07/21 11:32:24;;;;;;;5.80;1.85;;;;;;;20.43;58.19;100101.97;5053758;28;20040;-77
2023/07/21 11:35:35;;;;;;;4.70;2.45;;;;;;;20.15;59.56;100103.88;5054514;28;20390;-83
2023/07/21 11:38:40;;;;;;;5.22;1.92;;;;;;;20.14;58.87;100107.53;5054906;28;20533;-81
2023/07/21 11:41:59;;;;;;;3.20;1.95;;;;;;;19.83;60.53;100115.03;5055569;28;20048;-78
2023/07/21 11:45:24;;;;;;;3.20;1.80;;;;;;;19.83;60.73;100109.72;5054409;28;20073;-74
2023/07/21 11:48:29;;;;;;;6.47;3.10;;;;;;;19.78;61.16;100117.28;5055274;28;20239;-77
2023/07/21 11:51:42;;;;;;;4.03;1.80;;;;;;;19.94;60.39;100113.97;5053985;28;20541;-78
2023/07/21 11:54:49;;;;;;;3.50;1.80;;;;;;;19.98;60.76;100112.69;5054742;28;20051;-78
2023/07/21 11:57:53;;;;;;;4.85;1.95;;;;;;;19.89;62.11;100113.59;5054841;28;20095;-78
2023/07/21 12:00:56;;;;;;;5.45;2.45;;;;;;;19.86;60.56;100119.19;5054717;28;20044;-79
2023/07/21 12:04:31;;;;;;;6.22;1.88;;;;;;;19.80;62.61;100117.13;5054593;28;20091;-82
2023/07/21 12:07:59;;;;;;;5.20;1.80;;;;;;;19.74;62.12;100121.22;5054445;28;20055;-86
2023/07/21 12:11:15;;;;;;;3.47;1.95;;;;;;;19.86;62.94;100116.53;5054084;28;20510;-75
2023/07/21 12:14:18;;;;;;;3.22;1.80;;;;;;;19.65;63.69;100124.75;5054011;28;20047;-81
2023/07/21 12:17:25;;;;;;;8.18;2.20;;;;;;;19.38;65.99;100125.56;5054870;28;20398;-82
2023/07/21 12:21:18;;;;;;;5.18;2.30;;;;;;;19.47;67.64;100140.59;5053509;28;20075;-79
2023/07/21 12:24:22;;;;;;;3.70;1.85;;;;;;;19.64;69.81;100142.50;5054333;28;20056;-77
2023/07/21 12:27:26;;;;;;;4.55;1.80;;;;;;;19.69;70.09;100171.25;5053923;28;20040;-83
2023/07/21 12:30:30;;;;;;;3.22;1.25;;;;;;;18.84;69.06;100202.16;5054119;28;20129;-83
2023/07/21 12:33:35;;;;;;;3.95;0.80;;;;;;;17.52;72.53;100218.31;5053545;28;20048;-82
2023/07/21 12:37:22;;;;;;;8.52;0.90;;;;;;;17.64;73.46;100214.59;5053107;28;20457;-87
2023/07/21 12:41:11;;;;;;;8.35;1.17;;;;;;;17.02;74.64;100223.44;5052250;28;20055;-84
2023/07/21 12:44:15;;;;;;;2.40;0.80;;;;;;;16.76;75.79;100226.47;5053902;28;20048;-82
2023/07/21 12:47:19;;;;;;;2.13;0.63;;;;;;;16.53;77.08;100220.41;5053452;28;20524;-84
2023/07/21 12:50:24;;;;;;;3.40;0.98;;;;;;;16.62;77.38;100221.44;5057975;28;20051;-85
2023/07/21 12:53:30;;;;;;;3.97;0.93;;;;;;;16.65;78.27;100224.66;5073250;28;20094;-84
2023/07/21 12:56:33;;;;;;;6.15;1.08;;;;;;;16.40;77.95;100228.50;5073289;28;20047;-83
2023/07/21 12:59:36;;;;;;;3.95;1.00;;;;;;;16.26;79.36;100226.13;5073338;28;20119;-82
2023/07/21 13:02:40;;;;;;;2.33;0.85;;;;;;;16.46;76.73;100220.09;5071390;28;20047;-86
2023/07/21 13:05:44;;;;;;;4.20;1.17;;;;;;;16.63;75.89;100220.50;5072141;28;20047;-83
2023/07/21 13:13:32;;;;;;;3.63;0.80;;;;;;;16.89;75.85;100221.00;5073093;28;20044;-89
2023/07/21 13:16:35;;;;;;;2.33;0.70;;;;;;;16.79;76.64;100228.03;5073023;28;20289;-88
2023/07/21 13:20:09;;;;;;;4.00;0.80;;;;;;;16.62;76.23;100222.28;5072777;28;20113;-88
2023/07/21 13:24:17;;;;;;;2.33;0.73;;;;;;;16.68;76.79;100224.41;5072100;28;20197;-88
2023/07/21 13:27:25;;;;;;;1.60;0.63;;;;;;;16.92;75.25;100213.66;5072574;28;20055;-85
2023/07/21 13:30:29;;;;;;;3.08;0.70;;;;;;;16.95;75.10;100213.41;5095553;28;20050;-87
2023/07/21 13:34:46;;;;;;;3.47;0.77;;;;;;;17.28;74.81;100216.78;5044428;28;20524;-91
2023/07/21 13:38:39;;;;;;;2.15;0.82;;;;;;;17.65;75.36;100224.22;5072929;28;20097;-85
2023/07/21 13:41:47;;;;;;;1.90;0.70;;;;;;;17.51;74.59;100222.75;5070007;28;20071;-76
2023/07/21 13:44:51;;;;;;;3.38;1.00;;;;;;;17.58;75.09;100213.34;5070886;28;20058;-78
2023/07/21 13:47:54;;;;;;;3.35;1.20;;;;;;;17.44;74.91;100217.16;5071350;28;20711;-76
2023/07/21 13:50:57;;;;;;;2.28;0.90;;;;;;;17.80;74.52;100220.25;5071898;28;20058;-82
2023/07/21 13:54:01;;;;;;;2.50;0.95;;;;;;;17.55;74.79;100218.88;5072189;28;20042;-80
2023/07/21 13:57:05;;;;;;;2.13;0.77;;;;;;;17.87;73.59;100213.47;5069233;28;20099;-89
2023/07/21 14:00:30;;;;;;;2.72;0.82;;;;;;;17.98;73.15;100214.31;5052083;28;20052;-81
2023/07/21 14:03:36;;;;;;;3.05;0.98;;;;;;;17.81;73.82;100221.09;5051264;28;20536;-75
2023/07/21 14:06:51;;;;;;;4.22;0.85;;;;;;;18.00;73.85;100220.34;5052303;28;20110;-75
2023/07/21 14:09:58;;;;;;;2.72;0.70;;;;;;;18.06;73.59;100227.69;5052290;28;20056;-74
2023/07/21 14:13:05;;;;;;;2.97;0.85;;;;;;;17.97;74.47;100217.97;5052298;28;20051;-80
2023/07/21 14:16:12;;;;;;;4.22;1.50;;;;;;;18.18;74.19;100223.97;5052013;28;20482;-84
2023/07/21 14:23:25;;;;;;;2.75;0.90;;;;;;;18.30;72.96;100214.09;5051561;28;20406;-81
2023/07/21 14:26:29;;;;;;;3.83;1.20;;;;;;;18.35;74.42;100210.09;5050402;28;20048;-79
2023/07/21 14:29:38;;;;;;;2.15;1.23;;;;;;;18.36;76.52;100209.09;5066762;28;20123;-80
2023/07/21 14:32:42;;;;;;;2.80;1.10;;;;;;;18.47;75.67;100200.19;5070638;28;20055;-80
2023/07/21 16:05:36;;;;;;;2.72;1.00;;;;;;;29.87;33.87;100094.47;3217400;23;20333;-84
2023/07/21 16:10:15;;;;;;;2.28;0.90;;;;;;;29.04;35.78;100097.09;4876726;29;20060;-87
2023/07/21 16:14:12;;;;;;;2.10;0.82;;;;;;;27.71;37.60;100083.56;4867345;29;20043;-86
2023/07/21 16:18:07;;;;;;;2.70;0.82;;;;;;;25.44;42.16;100085.53;4844426;29;20074;-86
2023/07/21 16:21:18;;;;;;;2.60;1.20;;;;;;;24.83;43.58;100093.75;4846859;29;20073;-87
2023/07/21 16:25:35;;;;;;;3.30;1.20;;;;;;;23.62;47.45;100107.00;4860137;29;20048;-92
2023/07/21 16:29:10;;;;;;;2.90;1.05;;;;;;;23.08;49.02;100123.72;4859358;29;20052;-89
2023/07/21 16:48:40;;;;;;;4.00;1.52;;;;;;;19.39;66.77;100249.19;4891257;29;20508;-93
2023/07/21 16:52:00;;;;;;;5.72;1.83;;;;;;;20.01;67.21;100226.50;4936370;29;20583;-85
2023/07/21 16:55:12;;;;;;;7.50;2.00;;;;;;;19.44;70.71;100234.53;4936508;29;20122;-85
2023/07/21 17:04:31;;;;;;;;;;;;;;;;;;;;;
2023/07/21 17:08:34;;;;;;;5.63;1.85;;;;;;;19.71;69.20;100240.88;4836978;29;20136;-82